createdAt,value
2022-08-20T00:00:36.222Z,100968.19
2022-08-20T00:03:06.826Z,100954.34
2022-08-20T00:05:40.881Z,100950.13
2022-08-20T00:08:12.241Z,100944.31
2022-08-20T00:10:45.259Z,100937.88
2022-08-20T00:13:20.686Z,100949.91
2022-08-20T00:15:50.849Z,100940.13
2022-08-20T00:18:18.476Z,100939.22
2022-08-20T00:20:51.732Z,100936.50
2022-08-20T00:23:21.814Z,100934.84
2022-08-20T00:25:50.463Z,100929.66
2022-08-20T00:28:20.310Z,100927.13
2022-08-20T00:30:48.555Z,100931.00
2022-08-20T00:33:23.201Z,100934.22
2022-08-20T00:35:56.405Z,100923.50
2022-08-20T00:38:28.879Z,100921.03
2022-08-20T00:40:58.522Z,100921.31
2022-08-20T00:43:33.503Z,100912.19
2022-08-20T00:46:06.950Z,100914.84
2022-08-20T00:48:39.341Z,100914.16
2022-08-20T00:51:15.151Z,100909.16
2022-08-20T00:53:45.816Z,100903.81
2022-08-20T00:56:16.104Z,100909.44
2022-08-20T00:58:46.010Z,100902.66
2022-08-20T01:01:17.736Z,100901.38
2022-08-20T01:03:48.012Z,100904.88
2022-08-20T01:06:18.154Z,100907.16
2022-08-20T01:08:47.681Z,100915.38
2022-08-20T01:11:20.219Z,100914.91
2022-08-20T01:13:48.677Z,100906.63
2022-08-20T01:16:23.850Z,100903.78
2022-08-20T01:18:55.171Z,100910.41
2022-08-20T01:21:28.306Z,100907.91
2022-08-20T01:24:05.592Z,100903.03
2022-08-20T01:26:40.258Z,100901.22
2022-08-20T01:29:15.729Z,100896.19
2022-08-20T01:31:46.594Z,100898.00
2022-08-20T01:34:18.212Z,100887.03
2022-08-20T01:36:51.597Z,100886.19
2022-08-20T01:39:27.265Z,100882.84
2022-08-20T01:42:04.170Z,100884.84
2022-08-20T01:44:35.471Z,100887.50
2022-08-20T01:47:11.578Z,100882.16
2022-08-20T01:49:46.536Z,100881.81
2022-08-20T01:52:25.937Z,100890.00
2022-08-20T01:54:55.825Z,100889.50
2022-08-20T01:57:27.384Z,100892.84
2022-08-20T01:59:58.469Z,100895.50
2022-08-20T02:02:29.440Z,100894.88
2022-08-20T02:04:58.710Z,100891.53
2022-08-20T02:07:28.444Z,100881.03
2022-08-20T02:09:58.471Z,100889.84
2022-08-20T02:12:31.504Z,100889.53
2022-08-20T02:15:00.207Z,100882.22
2022-08-20T02:17:28.282Z,100871.88
2022-08-20T02:20:04.455Z,100876.69
2022-08-20T02:22:38.800Z,100875.22
2022-08-20T02:25:13.223Z,100871.03
2022-08-20T02:27:45.966Z,100872.38
2022-08-20T02:30:27.760Z,100868.84
2022-08-20T02:32:56.712Z,100866.84
2022-08-20T02:35:28.482Z,100864.22
2022-08-20T02:37:59.007Z,100862.81
2022-08-20T02:40:30.558Z,100859.84
2022-08-20T02:43:06.359Z,100855.03
2022-08-20T02:45:37.256Z,100856.03
2022-08-20T02:48:09.376Z,100849.22
2022-08-20T02:50:37.330Z,100852.53
2022-08-20T02:53:05.215Z,100844.03
2022-08-20T02:55:37.564Z,100855.03
2022-08-20T02:58:08.954Z,100854.31
2022-08-20T03:00:38.506Z,100853.50
2022-08-20T03:03:09.383Z,100849.34
2022-08-20T03:05:42.517Z,100856.50
2022-08-20T03:08:14.616Z,100848.03
2022-08-20T03:10:47.141Z,100844.19
2022-08-20T03:13:20.814Z,100841.94
2022-08-20T03:15:55.253Z,100829.94
2022-08-20T03:18:33.556Z,100827.72
2022-08-20T03:21:01.531Z,100831.38
2022-08-20T03:23:32.398Z,100832.53
2022-08-20T03:26:06.930Z,100834.66
2022-08-20T03:28:38.536Z,100836.84
2022-08-20T03:31:06.907Z,100830.34
2022-08-20T03:33:36.895Z,100833.88
2022-08-20T03:36:09.845Z,100837.78
2022-08-20T03:38:39.768Z,100834.59
2022-08-20T03:41:07.677Z,100829.78
2022-08-20T03:43:41.220Z,100841.13
2022-08-20T03:46:23.064Z,100843.63
2022-08-20T03:49:00.337Z,100832.47
2022-08-20T03:51:28.991Z,100838.00
2022-08-20T03:54:01.385Z,100831.97
2022-08-20T03:56:29.477Z,100833.53
2022-08-20T03:59:00.907Z,100825.50
2022-08-20T04:01:36.277Z,100830.34
2022-08-20T04:04:16.458Z,100829.00
2022-08-20T04:06:47.773Z,100834.69
2022-08-20T04:09:16.392Z,100843.03
2022-08-20T04:11:46.383Z,100836.88
2022-08-20T04:14:20.567Z,100835.50
2022-08-20T04:16:48.957Z,100838.66
2022-08-20T04:19:19.330Z,100831.19
2022-08-20T04:21:50.794Z,100833.34
2022-08-20T04:24:26.745Z,100842.97
2022-08-20T04:27:06.930Z,100841.63
2022-08-20T04:29:38.487Z,100835.78
2022-08-20T04:32:07.200Z,100838.44
2022-08-20T04:34:37.841Z,100841.28
2022-08-20T04:37:16.672Z,100848.75
2022-08-20T04:39:47.507Z,100848.28
2022-08-20T04:42:17.553Z,100842.78
2022-08-20T04:44:49.022Z,100853.25
2022-08-20T04:47:21.415Z,100857.84
2022-08-20T04:50:06.567Z,100864.16
2022-08-20T04:52:37.980Z,100861.16
2022-08-20T04:55:12.537Z,100859.09
2022-08-20T04:57:41.103Z,100852.09
2022-08-20T05:00:18.396Z,100858.06
2022-08-20T05:02:46.307Z,100852.31
2022-08-20T05:05:16.609Z,100853.53
2022-08-20T05:07:48.807Z,100845.06
2022-08-20T05:10:20.206Z,100844.84
2022-08-20T05:12:56.720Z,100844.84
2022-08-20T05:15:30.176Z,100850.66
2022-08-20T05:18:00.713Z,100849.59
2022-08-20T05:20:34.213Z,100853.56
2022-08-20T05:23:03.596Z,100855.88
2022-08-20T05:25:34.334Z,100863.03
2022-08-20T05:28:09.594Z,100864.38
2022-08-20T05:30:42.939Z,100864.38
2022-08-20T05:33:12.043Z,100854.03
2022-08-20T05:35:42.552Z,100852.53
2022-08-20T05:38:14.653Z,100845.69
2022-08-20T05:40:45.066Z,100854.13
2022-08-20T05:43:13.031Z,100846.72
2022-08-20T05:45:47.139Z,100848.34
2022-08-20T05:48:18.454Z,100847.28
2022-08-20T05:50:52.449Z,100835.31
2022-08-20T05:53:20.524Z,100836.31
2022-08-20T05:55:49.519Z,100837.63
2022-08-20T05:58:22.624Z,100838.59
2022-08-20T06:00:53.520Z,100849.72
2022-08-20T06:03:41.734Z,100823.84
2022-08-20T06:06:18.211Z,100839.53
2022-08-20T06:09:02.371Z,100824.91
2022-08-20T06:11:37.222Z,100816.41
2022-08-20T06:14:07.943Z,100807.34
2022-08-20T06:16:38.862Z,100800.56
2022-08-20T06:19:11.264Z,100799.13
2022-08-20T06:21:42.366Z,100781.69
2022-08-20T06:24:10.507Z,100781.78
2022-08-20T06:26:38.409Z,100791.91
2022-08-20T06:29:10.425Z,100793.28
2022-08-20T06:31:42.259Z,100800.78
2022-08-20T06:34:14.025Z,100803.00
2022-08-20T06:36:46.827Z,100804.28
2022-08-20T06:39:19.102Z,100790.97
2022-08-20T06:41:47.721Z,100780.31
2022-08-20T06:44:17.202Z,100765.72
2022-08-20T06:46:50.852Z,100763.72
2022-08-20T06:49:19.435Z,100776.56
2022-08-20T06:51:50.066Z,100775.06
2022-08-20T06:54:20.875Z,100778.56
2022-08-20T06:56:58.978Z,100768.94
2022-08-20T06:59:31.084Z,100770.88
2022-08-20T07:02:00.531Z,100780.28
2022-08-20T07:04:29.159Z,100783.78
2022-08-20T07:07:01.707Z,100781.97
2022-08-20T07:09:29.687Z,100784.38
2022-08-20T07:12:00.169Z,100787.91
2022-08-20T07:14:37.137Z,100781.41
2022-08-20T07:17:12.315Z,100779.59
2022-08-20T07:19:42.057Z,100777.91
2022-08-20T07:22:10.032Z,100777.44
2022-08-20T07:24:41.201Z,100781.22
2022-08-20T07:27:14.925Z,100786.22
2022-08-20T07:30:01.191Z,100781.22
2022-08-20T07:32:39.661Z,100788.22
2022-08-20T07:35:18.968Z,100792.06
2022-08-20T07:37:51.925Z,100794.22
2022-08-20T07:40:26.120Z,100791.09
2022-08-20T07:42:55.336Z,100785.78
2022-08-20T07:45:24.319Z,100790.94
2022-08-20T07:47:54.274Z,100791.88
2022-08-20T07:50:28.979Z,100787.06
2022-08-20T07:53:00.511Z,100777.22
2022-08-20T07:55:33.094Z,100776.97
2022-08-20T07:58:08.837Z,100760.34
2022-08-20T08:00:41.651Z,100763.22
2022-08-20T08:03:12.802Z,100762.69
2022-08-20T08:05:44.843Z,100769.53
2022-08-20T08:08:17.663Z,100787.50
2022-08-20T08:10:52.355Z,100789.31
2022-08-20T08:13:20.502Z,100790.91
2022-08-20T08:15:51.535Z,100792.44
2022-08-20T08:18:28.863Z,100787.22
2022-08-20T08:21:01.554Z,100775.88
2022-08-20T08:23:31.658Z,100774.81
2022-08-20T08:26:00.301Z,100775.94
2022-08-20T08:28:32.573Z,100759.66
2022-08-20T08:31:00.427Z,100764.78
2022-08-20T08:33:34.758Z,100766.13
2022-08-20T08:36:06.236Z,100768.78
2022-08-20T08:38:35.996Z,100760.50
2022-08-20T08:41:17.700Z,100741.84
2022-08-20T08:43:48.103Z,100742.97
2022-08-20T08:46:20.714Z,100736.63
2022-08-20T08:48:55.685Z,100751.28
2022-08-20T08:51:31.566Z,100746.63
2022-08-20T08:54:03.454Z,100746.63
2022-08-20T08:56:35.912Z,100745.66
2022-08-20T08:59:10.720Z,100738.53
2022-08-20T09:01:55.097Z,100736.56
2022-08-20T09:04:33.730Z,100741.88
2022-08-20T09:07:05.795Z,100753.06
2022-08-20T09:09:37.610Z,100743.03
2022-08-20T09:12:08.697Z,100742.22
2022-08-20T09:14:37.791Z,100748.72
2022-08-20T09:17:10.147Z,100745.34
2022-08-20T09:19:39.535Z,100737.19
2022-08-20T09:22:11.931Z,100736.03
2022-08-20T09:24:40.400Z,100731.22
2022-08-20T09:27:08.672Z,100737.03
2022-08-20T09:29:41.418Z,100740.69
2022-08-20T09:32:12.023Z,100743.88
2022-08-20T09:34:49.068Z,100734.41
2022-08-20T09:37:17.665Z,100745.53
2022-08-20T09:39:48.916Z,100727.06
2022-08-20T09:42:22.417Z,100725.94
2022-08-20T09:44:50.966Z,100729.31
2022-08-20T09:47:18.900Z,100723.97
2022-08-20T09:49:48.994Z,100724.84
2022-08-20T09:52:23.589Z,100720.50
2022-08-20T09:54:54.970Z,100719.41
2022-08-20T09:57:23.540Z,100718.88
2022-08-20T10:00:26.733Z,100720.50
2022-08-20T10:02:54.785Z,100711.50
2022-08-20T10:05:24.079Z,100714.06
2022-08-20T10:07:54.043Z,100707.41
2022-08-20T10:10:24.232Z,100707.41
2022-08-20T10:12:55.012Z,100706.91
2022-08-20T10:15:23.245Z,100693.91
2022-08-20T10:17:51.192Z,100698.25
2022-08-20T10:20:19.817Z,100693.09
2022-08-20T10:22:49.112Z,100700.59
2022-08-20T10:25:17.868Z,100700.75
2022-08-20T10:27:47.644Z,100695.56
2022-08-20T10:30:17.768Z,100703.91
2022-08-20T10:32:45.464Z,100682.91
2022-08-20T10:35:13.422Z,100684.56
2022-08-20T10:37:43.395Z,100689.41
2022-08-20T10:40:16.191Z,100688.56
2022-08-20T10:42:44.594Z,100681.41
2022-08-20T10:45:13.092Z,100691.88
2022-08-20T10:47:44.041Z,100691.53
2022-08-20T10:50:17.097Z,100697.00
2022-08-20T10:52:48.385Z,100691.38
2022-08-20T10:55:18.085Z,100696.88
2022-08-20T10:57:46.596Z,100697.00
2022-08-20T11:00:17.465Z,100695.34
2022-08-20T11:02:47.246Z,100695.06
2022-08-20T11:05:15.378Z,100702.50
2022-08-20T11:07:54.808Z,100702.50
2022-08-20T11:10:27.006Z,100706.38
2022-08-20T11:12:55.846Z,100708.38
2022-08-20T11:15:24.113Z,100705.91
2022-08-20T11:17:56.726Z,100710.22
2022-08-20T11:20:27.233Z,100714.41
2022-08-20T11:22:55.387Z,100709.56
2022-08-20T11:25:25.466Z,100705.91
2022-08-20T11:27:58.531Z,100711.22
2022-08-20T11:30:36.028Z,100705.06
2022-08-20T11:33:07.463Z,100702.09
2022-08-20T11:35:43.497Z,100699.59
2022-08-20T11:38:23.010Z,100708.59
2022-08-20T11:40:50.998Z,100701.94
2022-08-20T11:43:20.345Z,100703.75
2022-08-20T11:45:56.139Z,100704.44
2022-08-20T11:48:24.002Z,100701.09
2022-08-20T11:50:54.118Z,100699.91
2022-08-20T11:53:23.689Z,100707.59
2022-08-20T11:55:52.473Z,100695.41
2022-08-20T11:58:27.443Z,100705.59
2022-08-20T12:00:55.668Z,100703.25
2022-08-20T12:04:07.402Z,100705.91
2022-08-20T12:06:35.227Z,100706.91
2022-08-20T12:09:03.233Z,100708.06
2022-08-20T12:11:31.268Z,100704.56
2022-08-20T12:14:00.440Z,100702.91
2022-08-20T12:16:29.469Z,100710.75
2022-08-20T12:18:59.298Z,100710.22
2022-08-20T12:21:30.782Z,100706.75
2022-08-20T12:24:00.458Z,100710.56
2022-08-20T12:26:28.440Z,100709.25
2022-08-20T12:28:56.689Z,100713.94
2022-08-20T12:31:27.779Z,100715.41
2022-08-20T12:33:55.584Z,100705.75
2022-08-20T12:36:23.406Z,100710.44
2022-08-20T12:38:53.515Z,100708.41
2022-08-20T12:41:21.126Z,100712.59
2022-08-20T12:43:49.045Z,100711.25
2022-08-20T12:46:23.164Z,100703.94
2022-08-20T12:48:53.488Z,100707.28
2022-08-20T12:51:25.319Z,100713.59
2022-08-20T12:53:53.125Z,100719.63
2022-08-20T12:56:20.937Z,100720.94
2022-08-20T12:58:51.110Z,100724.44
2022-08-20T13:01:19.227Z,100720.72
2022-08-20T13:03:47.052Z,100723.22
2022-08-20T13:06:20.199Z,100719.72
2022-08-20T13:08:50.564Z,100719.84
2022-08-20T13:11:20.470Z,100721.78
2022-08-20T13:13:52.058Z,100725.75
2022-08-20T13:16:19.975Z,100715.38
2022-08-20T13:18:48.164Z,100720.00
2022-08-20T13:21:23.823Z,100712.19
2022-08-20T13:23:54.061Z,100719.03
2022-08-20T13:26:21.845Z,100729.19
2022-08-20T13:28:49.655Z,100723.53
2022-08-20T13:31:19.674Z,100724.41
2022-08-20T13:33:48.135Z,100724.81
2022-08-20T13:36:20.991Z,100727.47
2022-08-20T13:38:48.820Z,100728.63
2022-08-20T13:41:16.771Z,100722.72
2022-08-20T13:43:46.835Z,100728.25
2022-08-20T13:46:14.473Z,100729.19
2022-08-20T13:48:44.212Z,100742.78
2022-08-20T13:51:14.135Z,100736.78
2022-08-20T13:53:50.276Z,100728.72
2022-08-20T13:56:21.391Z,100730.94
2022-08-20T13:58:49.237Z,100729.13
2022-08-20T14:01:21.108Z,100728.03
2022-08-20T14:03:51.062Z,100724.13
2022-08-20T14:06:18.886Z,100727.94
2022-08-20T14:08:50.040Z,100725.75
2022-08-20T14:11:18.100Z,100724.78
2022-08-20T14:13:45.970Z,100714.09
2022-08-20T14:16:21.076Z,100723.00
2022-08-20T14:18:57.356Z,100723.22
2022-08-20T14:21:27.201Z,100724.78
2022-08-20T14:23:58.169Z,100726.84
2022-08-20T14:26:30.233Z,100727.03
2022-08-20T14:28:58.060Z,100721.34
2022-08-20T14:31:25.934Z,100726.53
2022-08-20T14:33:57.786Z,100725.06
2022-08-20T14:36:27.674Z,100730.78
2022-08-20T14:38:56.878Z,100737.50
2022-08-20T14:41:26.553Z,100745.16
2022-08-20T14:43:58.414Z,100749.25
2022-08-20T14:46:26.263Z,100750.28
2022-08-20T14:48:55.736Z,100761.63
2022-08-20T14:51:23.661Z,100762.25
2022-08-20T14:53:51.735Z,100753.19
2022-08-20T14:56:21.028Z,100753.84
2022-08-20T14:58:51.583Z,100755.84
2022-08-20T15:01:19.476Z,100760.88
2022-08-20T15:03:47.449Z,100758.28
2022-08-20T15:06:22.160Z,100763.16
2022-08-20T15:08:52.250Z,100757.84
2022-08-20T15:11:21.704Z,100762.38
2022-08-20T15:13:49.553Z,100763.09
2022-08-20T15:16:17.485Z,100755.84
2022-08-20T15:18:45.379Z,100756.38
2022-08-20T15:21:13.360Z,100761.44
2022-08-20T15:23:43.119Z,100772.88
2022-08-20T15:26:11.061Z,100781.22
2022-08-20T15:28:40.455Z,100789.47
2022-08-20T15:31:10.721Z,100788.50
2022-08-20T15:33:41.373Z,100791.19
2022-08-20T15:36:10.617Z,100797.72
2022-08-20T15:38:38.866Z,100804.56
2022-08-20T15:41:07.230Z,100811.75
2022-08-20T15:43:35.231Z,100811.91
2022-08-20T15:46:08.298Z,100820.41
2022-08-20T15:48:41.974Z,100819.06
2022-08-20T15:51:27.609Z,100818.38
2022-08-20T15:54:01.609Z,100826.84
2022-08-20T15:56:55.771Z,100833.72
2022-08-20T15:59:46.190Z,100832.31
2022-08-20T16:02:36.258Z,100842.59
2022-08-20T16:05:15.907Z,100849.28
2022-08-20T16:08:00.266Z,100847.53
2022-08-20T16:10:42.091Z,100856.50
2022-08-20T16:13:22.403Z,100855.97
2022-08-20T16:15:56.084Z,100855.28
2022-08-20T16:18:32.893Z,100858.44
2022-08-20T16:21:07.481Z,100849.56
2022-08-20T16:23:41.841Z,100850.19
2022-08-20T16:26:29.122Z,100851.53
2022-08-20T16:29:11.707Z,100852.69
2022-08-20T16:31:46.149Z,100843.97
2022-08-20T16:34:33.870Z,100848.25
2022-08-20T16:37:16.529Z,100833.88
2022-08-20T16:39:53.330Z,100834.41
2022-08-20T16:42:27.172Z,100845.69
2022-08-20T16:44:57.799Z,100845.38
2022-08-20T16:47:29.316Z,100850.91
2022-08-20T16:50:02.020Z,100844.63
2022-08-20T16:52:30.333Z,100845.31
2022-08-20T16:54:58.287Z,100853.16
2022-08-20T16:57:30.315Z,100842.78
2022-08-20T17:00:06.864Z,100848.28
2022-08-20T17:02:36.692Z,100844.94
2022-08-20T17:05:08.667Z,100849.44
2022-08-20T17:07:50.113Z,100843.75
2022-08-20T17:10:24.529Z,100846.53
2022-08-20T17:12:59.519Z,100850.97
2022-08-20T17:15:29.865Z,100855.97
2022-08-20T17:17:58.148Z,100856.97
2022-08-20T17:20:30.265Z,100852.63
2022-08-20T17:23:11.990Z,100854.88
2022-08-20T17:25:40.084Z,100862.41
2022-08-20T17:28:15.620Z,100869.97
2022-08-20T17:30:49.255Z,100870.44
2022-08-20T17:33:27.074Z,100876.19
2022-08-20T17:36:02.368Z,100881.50
2022-08-20T17:38:35.952Z,100880.31
2022-08-20T17:41:19.996Z,100880.91
2022-08-20T17:43:47.897Z,100884.25
2022-08-20T17:46:18.988Z,100889.66
2022-08-20T17:48:50.748Z,100895.44
2022-08-20T17:51:27.545Z,100890.88
2022-08-20T17:54:13.080Z,100890.81
2022-08-20T17:56:45.214Z,100898.50
2022-08-20T17:59:36.394Z,100900.78
2022-08-20T18:02:12.529Z,100905.94
2022-08-20T18:04:40.665Z,100902.38
2022-08-20T18:07:24.987Z,100914.00
2022-08-20T18:09:58.864Z,100920.25
2022-08-20T18:12:34.972Z,100915.84
2022-08-20T18:15:11.645Z,100916.66
2022-08-20T18:18:01.631Z,100916.97
2022-08-20T18:20:52.257Z,100923.97
2022-08-20T18:23:28.689Z,100928.56
2022-08-20T18:26:05.757Z,100927.94
2022-08-20T18:28:39.385Z,100934.78
2022-08-20T18:31:12.258Z,100934.03
2022-08-20T18:33:43.222Z,100932.81
2022-08-20T18:36:17.320Z,100934.47
2022-08-20T18:39:00.229Z,100936.53
2022-08-20T18:41:31.004Z,100935.25
2022-08-20T18:44:10.291Z,100941.72
2022-08-20T18:46:39.284Z,100942.59
2022-08-20T18:49:13.724Z,100943.16
2022-08-20T18:51:51.887Z,100939.50
2022-08-20T18:54:29.249Z,100950.16
2022-08-20T18:57:06.838Z,100950.75
2022-08-20T18:59:41.973Z,100951.34
2022-08-20T19:02:20.974Z,100957.16
2022-08-20T19:05:02.032Z,100960.09
2022-08-20T19:07:48.021Z,100966.56
2022-08-20T19:10:40.525Z,100958.19
2022-08-20T19:13:34.138Z,100952.63
2022-08-20T19:16:09.566Z,100959.75
2022-08-20T19:18:44.924Z,100963.97
2022-08-20T19:21:15.956Z,100966.50
2022-08-20T19:23:58.466Z,100963.03
2022-08-20T19:26:30.474Z,100966.13
2022-08-20T19:29:04.105Z,100972.16
2022-08-20T19:31:34.351Z,100967.31
2022-08-20T19:34:19.883Z,100972.50
2022-08-20T19:36:56.366Z,100965.34
2022-08-20T19:39:27.937Z,100964.81
2022-08-20T19:42:04.416Z,100967.72
2022-08-20T19:44:40.908Z,100969.25
2022-08-20T19:47:19.459Z,100973.16
2022-08-20T19:49:58.546Z,100972.03
2022-08-20T19:52:39.526Z,100977.06
2022-08-20T19:55:19.324Z,100972.84
2022-08-20T19:57:59.509Z,100981.50
2022-08-20T20:00:31.743Z,100975.50
2022-08-20T20:03:09.671Z,100975.19
2022-08-20T20:05:47.029Z,100974.34
2022-08-20T20:08:15.585Z,100975.59
2022-08-20T20:10:44.227Z,100980.63
2022-08-20T20:13:23.182Z,100971.00
2022-08-20T20:15:54.706Z,100988.59
2022-08-20T20:18:29.722Z,100989.84
2022-08-20T20:21:12.629Z,100988.09
2022-08-20T20:23:51.634Z,100983.50
2022-08-20T20:26:20.976Z,100980.91
2022-08-20T20:28:53.981Z,100987.69
2022-08-20T20:31:30.928Z,100992.81
2022-08-20T20:34:04.451Z,100988.09
2022-08-20T20:36:36.194Z,100988.66
2022-08-20T20:39:14.312Z,100994.03
2022-08-20T20:41:51.775Z,100988.91
2022-08-20T20:44:30.043Z,100992.53
2022-08-20T20:47:02.259Z,100988.84
2022-08-20T20:49:33.023Z,100993.63
2022-08-20T20:52:03.061Z,101005.06
2022-08-20T20:54:42.723Z,101004.63
2022-08-20T20:57:38.638Z,100997.00
2022-08-20T21:00:14.356Z,100997.66
2022-08-20T21:02:43.361Z,100999.16
2022-08-20T21:05:12.108Z,100996.25
2022-08-20T21:07:50.292Z,100990.75
2022-08-20T21:10:21.001Z,100989.22
2022-08-20T21:13:16.442Z,100995.69
2022-08-20T21:15:44.341Z,100991.50
2022-08-20T21:18:16.384Z,100987.22
2022-08-20T21:20:44.422Z,100989.47
2022-08-20T21:23:12.433Z,100990.69
2022-08-20T21:25:41.312Z,100983.97
2022-08-20T21:28:09.489Z,100983.13
2022-08-20T21:30:37.559Z,100990.31
2022-08-20T21:33:08.823Z,100985.47
2022-08-20T21:35:36.675Z,100988.47
2022-08-20T21:38:04.537Z,100984.94
2022-08-20T21:40:32.666Z,100983.25
2022-08-20T21:43:06.082Z,100986.25
2022-08-20T21:45:35.445Z,100976.59
2022-08-20T21:48:03.751Z,100983.91
2022-08-20T21:50:33.043Z,100990.16
2022-08-20T21:53:12.690Z,100988.47
2022-08-20T21:55:41.595Z,100988.88
2022-08-20T21:58:12.426Z,100997.25
2022-08-20T22:01:02.729Z,100991.75
2022-08-20T22:03:38.686Z,100999.69
2022-08-20T22:06:14.456Z,100997.38
2022-08-20T22:08:44.484Z,101003.81
2022-08-20T22:11:14.981Z,100998.28
2022-08-20T22:13:43.873Z,100998.28
2022-08-20T22:16:15.901Z,100989.38
2022-08-20T22:18:46.674Z,100998.41
2022-08-20T22:21:21.049Z,101001.69
2022-08-20T22:23:52.175Z,100992.56
2022-08-20T22:26:21.282Z,100985.59
2022-08-20T22:28:51.515Z,100994.47
2022-08-20T22:31:25.313Z,100993.41
2022-08-20T22:33:55.146Z,100994.41
2022-08-20T22:36:26.705Z,100995.00
2022-08-20T22:38:55.872Z,100993.06
2022-08-20T22:41:24.556Z,100995.38
2022-08-20T22:43:57.061Z,100996.44
2022-08-20T22:46:29.039Z,100996.81
2022-08-20T22:48:59.187Z,100992.84
2022-08-20T22:51:34.806Z,100992.84
2022-08-20T22:54:07.238Z,100995.25
2022-08-20T22:56:37.086Z,100991.38
2022-08-20T22:59:07.800Z,100988.75
2022-08-20T23:01:35.744Z,100986.84
2022-08-20T23:04:13.470Z,100999.34
2022-08-20T23:06:44.860Z,100990.66
2022-08-20T23:09:13.164Z,100998.56
2022-08-20T23:11:43.181Z,100993.53
2022-08-20T23:14:13.154Z,100984.41
2022-08-20T23:16:46.368Z,100989.81
2022-08-20T23:19:21.774Z,100995.84
2022-08-20T23:21:53.734Z,100998.84
2022-08-20T23:24:23.987Z,100998.22
2022-08-20T23:26:53.080Z,100994.63
2022-08-20T23:29:25.540Z,101001.50
2022-08-20T23:31:57.098Z,101006.41
2022-08-20T23:34:27.421Z,101006.91
2022-08-20T23:37:00.976Z,101009.75
2022-08-20T23:39:31.526Z,101003.75
2022-08-20T23:42:00.165Z,101002.94
2022-08-20T23:44:30.417Z,101005.34
2022-08-20T23:47:03.214Z,101002.69
2022-08-20T23:49:32.223Z,101007.72
2022-08-20T23:52:03.272Z,101000.16
2022-08-20T23:54:34.788Z,100998.22
2022-08-20T23:57:08.169Z,100985.00
2022-08-20T23:59:38.971Z,100990.41
